Terminal Aerodrome Forecast
Issued by NWS

Home | Current Version | Previous Version | Text Only | Print | Product List | Glossary On
Versions: 1 2 3 4 5 6 7 8 9 10 11 12 13 14 15 16 17
000
FTUS43 KGRR 242300
TAFBTL
TAF
KBTL 242340Z 2500/2524 16004KT P6SM -SHRA BKN070
     FM250500 08003KT P6SM -SHRA OVC040
     FM251400 10012KT P6SM OVC035=

USA.gov is the U.S. government's official web portal to all federal, state and local government web resources and services.